Time;durP1;ratioP1;P1;durP2;ratioP2;P2;SDS_P1;SDS_P2;PMS_P1;PMS_P2;Temp;Humidity;BMP_temperature;BMP_pressure;BME280_temperature;BME280_humidity;BME280_pressure;Samples;Min_cycle;Max_cycle;Signal;HPM_P1;HPM_P2
2022/05/30 00:01:24;;;;;;;6.40;2.20;;;;;;;-149.78;100.00;50213.28;5091537;28;20081;-71
2022/05/30 00:03:50;;;;;;;5.30;2.47;;;;;;;-149.78;100.00;50228.94;5092455;28;20387;-71
2022/05/30 00:06:19;;;;;;;9.63;2.75;;;;;;;-149.78;100.00;50226.97;5091817;28;20044;-71
2022/05/30 00:08:45;;;;;;;7.00;2.42;;;;;;;-149.78;100.00;50221.13;5115254;27;20031;-71
2022/05/30 00:11:12;;;;;;;5.65;2.33;;;;;;;-149.78;100.00;50228.94;5125653;27;20091;-70
2022/05/30 00:13:39;;;;;;;4.15;2.50;;;;;;;-149.78;100.00;50182.00;5110770;27;20359;-71
2022/05/30 00:16:06;;;;;;;4.10;2.35;;;;;;;-149.78;100.00;50217.19;5112163;28;20032;-71
2022/05/30 00:18:32;;;;;;;12.23;2.80;;;;;;;-149.78;100.00;50185.91;5090418;27;20039;-70
2022/05/30 00:20:58;;;;;;;4.78;2.50;;;;;;;-149.78;100.00;50217.19;5098399;27;20035;-71
2022/05/30 00:23:24;;;;;;;5.82;2.80;;;;;;;-149.78;100.00;50168.31;5131085;27;20031;-71
2022/05/30 00:25:50;;;;;;;7.22;2.75;;;;;;;-149.78;100.00;50226.97;5096800;27;20153;-70
2022/05/30 00:28:16;;;;;;;6.07;2.60;;;;;;;-149.78;100.00;50225.03;5099412;27;20454;-70
2022/05/30 00:30:44;;;;;;;7.60;3.00;;;;;;;-149.78;100.00;50213.28;5117884;27;20150;-70
2022/05/30 00:33:11;;;;;;;4.43;2.88;;;;;;;-149.78;100.00;50252.41;5116071;27;20031;-71
2022/05/30 00:35:38;;;;;;;6.53;3.13;;;;;;;-149.78;100.00;50185.91;5120380;27;20031;-71
2022/05/30 00:38:05;;;;;;;7.32;3.22;;;;;;;-149.78;100.00;50225.03;5128256;27;20037;-71
2022/05/30 00:40:31;;;;;;;8.40;3.70;;;;;;;-149.78;100.00;50221.13;5129210;27;20031;-71
2022/05/30 00:43:22;;;;;;;10.25;3.30;;;;;;;-149.78;100.00;50199.59;5116479;27;20027;-71
2022/05/30 00:45:47;;;;;;;6.15;3.35;;;;;;;-149.78;100.00;50209.38;5123472;27;20385;-71
2022/05/30 00:48:14;;;;;;;5.15;2.90;;;;;;;-149.78;100.00;50197.66;5081594;27;20189;-71
2022/05/30 00:50:41;;;;;;;5.95;2.58;;;;;;;-149.78;100.00;50197.66;5107656;27;20031;-70
2022/05/30 00:53:08;;;;;;;7.88;3.10;;;;;;;-149.78;100.00;50189.81;5077282;28;20031;-70
2022/05/30 00:55:34;;;;;;;6.25;3.03;;;;;;;-149.78;100.00;50209.38;5112264;27;20500;-71
2022/05/30 00:58:01;;;;;;;7.60;3.13;;;;;;;-149.78;100.00;50201.56;5104070;28;20094;-70
2022/05/30 01:00:28;;;;;;;4.00;2.97;;;;;;;-149.78;100.00;50217.19;5105890;27;20051;-70
2022/05/30 01:08:28;;;;;;;4.45;2.85;;;;;;;-149.78;100.00;50205.47;5112167;28;20495;-70
2022/05/30 01:10:54;;;;;;;6.40;3.00;;;;;;;-149.78;100.00;50232.84;5110104;28;20036;-71
2022/05/30 01:13:20;;;;;;;4.90;2.95;;;;;;;-149.78;100.00;50201.56;5109915;28;20042;-70
2022/05/30 01:15:46;;;;;;;7.32;2.60;;;;;;;-149.78;100.00;50217.19;5107276;28;20490;-71
2022/05/30 01:18:20;;;;;;;5.95;2.95;;;;;;;-149.78;100.00;50225.03;5120469;28;20067;-70
2022/05/30 01:20:48;;;;;;;6.05;3.13;;;;;;;-149.78;100.00;50221.13;5117705;28;20040;-70
2022/05/30 01:23:32;;;;;;;4.70;3.70;;;;;;;-149.78;100.00;50213.28;5094654;28;20031;-70
2022/05/30 01:26:09;;;;;;;6.65;2.80;;;;;;;-149.78;100.00;50217.19;5122994;28;20470;-70
2022/05/30 01:29:00;;;;;;;4.80;3.17;;;;;;;-149.78;100.00;50209.38;5108611;28;20036;-71
2022/05/30 01:31:26;;;;;;;5.18;2.70;;;;;;;-149.78;100.00;50185.91;5112887;28;20060;-70
2022/05/30 01:33:52;;;;;;;6.20;3.05;;;;;;;-149.78;100.00;50217.19;5091209;28;20040;-71
2022/05/30 01:36:26;;;;;;;6.25;2.90;;;;;;;-149.78;100.00;50238.72;5113658;28;20031;-71
2022/05/30 01:38:52;;;;;;;8.52;3.55;;;;;;;-149.78;100.00;50182.00;5089011;28;20690;-70
2022/05/30 01:41:18;;;;;;;4.28;2.78;;;;;;;-149.78;100.00;50205.47;5114663;28;20027;-71
2022/05/30 01:43:45;;;;;;;8.57;3.17;;;;;;;-149.78;100.00;50217.19;5094332;28;20045;-70
2022/05/30 01:46:18;;;;;;;5.53;3.03;;;;;;;-149.78;100.00;50240.66;5112453;27;20083;-70
2022/05/30 01:48:45;;;;;;;7.72;3.05;;;;;;;-149.78;100.00;50211.34;5108422;27;20047;-70
2022/05/30 01:51:13;;;;;;;3.95;2.90;;;;;;;-149.78;100.00;50213.28;5132415;27;20027;-70
2022/05/30 01:53:39;;;;;;;5.93;2.70;;;;;;;-149.78;100.00;50225.03;5116834;27;20033;-71
2022/05/30 01:56:05;;;;;;;3.85;2.58;;;;;;;-149.78;100.00;50219.16;5110326;28;20121;-71
2022/05/30 01:58:32;;;;;;;6.65;2.80;;;;;;;-149.78;100.00;50211.34;5108462;27;20474;-70
2022/05/30 02:01:12;;;;;;;4.70;2.75;;;;;;;-149.78;100.00;50228.94;5129424;27;20032;-71
2022/05/30 02:03:38;;;;;;;5.63;3.00;;;;;;;-149.78;100.00;50221.13;5112770;28;20032;-70
2022/05/30 02:06:03;;;;;;;3.60;2.90;;;;;;;-149.78;100.00;50236.75;5120532;27;20530;-70
2022/05/30 02:08:29;;;;;;;6.70;2.72;;;;;;;-149.78;100.00;50205.47;5118471;27;20486;-70
2022/05/30 02:10:55;;;;;;;8.07;3.13;;;;;;;-149.78;100.00;50236.75;5089794;28;20491;-70
2022/05/30 02:13:21;;;;;;;7.47;3.00;;;;;;;-149.78;100.00;50228.94;5123816;27;20110;-70
2022/05/30 02:18:31;;;;;;;6.28;2.92;;;;;;;-149.78;100.00;50203.50;5114896;28;20035;-70
2022/05/30 02:20:57;;;;;;;4.85;3.08;;;;;;;-149.78;100.00;50228.94;5109404;27;20135;-70
2022/05/30 02:23:23;;;;;;;6.53;2.75;;;;;;;-149.78;100.00;50189.81;5109847;27;20107;-70
2022/05/30 02:25:50;;;;;;;6.03;3.08;;;;;;;-149.78;100.00;50201.56;5112528;27;20080;-70
2022/05/30 02:28:15;;;;;;;9.90;3.40;;;;;;;-149.78;100.00;50209.38;5131852;27;20035;-70
2022/05/30 02:30:41;;;;;;;5.72;2.90;;;;;;;-149.78;100.00;50225.03;5133595;27;20027;-70
2022/05/30 02:38:35;;;;;;;6.68;3.67;;;;;;;-149.78;100.00;50234.81;5115418;27;20122;-71
2022/05/30 02:41:01;;;;;;;8.27;3.47;;;;;;;-149.78;100.00;50213.28;5136242;27;20122;-71
2022/05/30 02:43:27;;;;;;;5.22;3.17;;;;;;;-149.78;100.00;50228.94;5136219;27;20485;-71
2022/05/30 02:45:52;;;;;;;8.18;3.55;;;;;;;-149.78;100.00;50225.03;5120822;27;20039;-71
2022/05/30 02:48:18;;;;;;;7.70;3.60;;;;;;;-149.78;100.00;50232.84;5094565;28;20042;-71
2022/05/30 02:50:45;;;;;;;8.15;3.50;;;;;;;-149.78;100.00;50250.44;5084113;28;20035;-71
2022/05/30 02:53:11;;;;;;;6.70;3.60;;;;;;;-149.78;100.00;50205.47;5119449;27;20475;-71
2022/05/30 02:55:37;;;;;;;7.30;3.65;;;;;;;-149.78;100.00;50262.19;5097654;27;20035;-71
2022/05/30 02:58:03;;;;;;;4.63;3.15;;;;;;;-149.78;100.00;50217.19;5128670;27;20035;-71
2022/05/30 03:00:29;;;;;;;9.25;3.60;;;;;;;-149.78;100.00;50244.59;5125691;27;20070;-71
2022/05/30 03:02:55;;;;;;;8.50;3.60;;;;;;;-149.78;100.00;50240.66;5101815;27;20455;-70
2022/05/30 03:05:21;;;;;;;8.00;3.60;;;;;;;-149.78;100.00;50236.75;5100293;27;20031;-71
2022/05/30 03:07:47;;;;;;;8.40;3.47;;;;;;;-149.78;100.00;50234.81;5134707;27;20043;-71
2022/05/30 03:10:13;;;;;;;6.53;3.53;;;;;;;-149.78;100.00;50234.81;5099959;28;20036;-71
2022/05/30 03:12:39;;;;;;;7.70;3.67;;;;;;;-149.78;100.00;50213.28;5106291;27;20119;-71
2022/05/30 03:15:05;;;;;;;8.13;4.10;;;;;;;-149.78;100.00;50221.13;5127569;27;20032;-71
2022/05/30 03:17:31;;;;;;;9.98;4.35;;;;;;;-149.78;100.00;50197.66;5103690;27;20031;-71
2022/05/30 03:19:57;;;;;;;6.15;3.35;;;;;;;-149.78;100.00;50248.50;5132787;27;20042;-70
2022/05/30 03:22:23;;;;;;;6.15;3.50;;;;;;;-149.78;100.00;50260.22;5130775;27;20060;-71
2022/05/30 03:24:51;;;;;;;6.55;3.28;;;;;;;-149.78;100.00;50217.19;5094689;28;20063;-71
2022/05/30 03:27:18;;;;;;;6.30;3.42;;;;;;;-149.78;100.00;50232.84;5111458;28;20115;-71
2022/05/30 03:29:44;;;;;;;5.70;3.88;;;;;;;-149.78;100.00;50244.59;5100585;27;20055;-71
2022/05/30 03:32:10;;;;;;;6.40;3.65;;;;;;;-149.78;100.00;50209.38;5086403;28;20063;-71
2022/05/30 03:34:35;;;;;;;5.97;3.08;;;;;;;-149.78;100.00;50211.34;5124007;27;20059;-71
2022/05/30 03:37:01;;;;;;;6.70;4.55;;;;;;;-149.78;100.00;50232.84;5114201;27;20023;-71
2022/05/30 03:39:28;;;;;;;6.15;3.15;;;;;;;-149.78;100.00;50189.81;5115259;27;20047;-71
2022/05/30 03:41:54;;;;;;;5.13;3.35;;;;;;;-149.78;100.00;50236.75;5114615;27;20035;-71
2022/05/30 03:44:19;;;;;;;5.70;3.08;;;;;;;-149.78;100.00;50228.94;5127362;27;20467;-71
2022/05/30 03:46:45;;;;;;;6.53;3.47;;;;;;;-149.78;100.00;50240.66;5125878;27;20148;-71
2022/05/30 03:49:10;;;;;;;7.82;3.45;;;;;;;-149.78;100.00;50244.59;5108584;28;20123;-70
2022/05/30 03:51:36;;;;;;;8.13;3.40;;;;;;;-149.78;100.00;50256.31;5104078;27;20114;-71
2022/05/30 03:54:01;;;;;;;4.75;2.65;;;;;;;-149.78;100.00;50232.84;5095957;27;20028;-71
2022/05/30 03:56:27;;;;;;;7.15;3.10;;;;;;;-149.78;100.00;50236.75;5106446;28;20042;-71
2022/05/30 03:58:52;;;;;;;5.30;3.28;;;;;;;-149.78;100.00;50248.50;5095313;28;20059;-71
2022/05/30 04:01:18;;;;;;;7.72;3.67;;;;;;;-149.78;100.00;50226.97;5120526;27;20059;-71
2022/05/30 04:03:44;;;;;;;4.85;3.00;;;;;;;-149.78;100.00;50205.47;5105049;27;20052;-71
2022/05/30 04:06:10;;;;;;;6.97;3.33;;;;;;;-149.78;100.00;50213.28;5097953;27;20039;-71
2022/05/30 04:08:39;;;;;;;10.45;3.38;;;;;;;-149.78;100.00;50213.28;5099784;28;20047;-71
2022/05/30 04:11:04;;;;;;;4.68;3.20;;;;;;;-149.78;100.00;50201.56;5120928;27;20086;-71
2022/05/30 04:13:30;;;;;;;6.53;3.80;;;;;;;-149.78;100.00;50225.03;5108561;27;20097;-71
2022/05/30 04:15:56;;;;;;;7.30;4.63;;;;;;;-149.78;100.00;50242.63;5117513;27;20035;-71
2022/05/30 04:18:22;;;;;;;7.97;3.85;;;;;;;-149.78;100.00;50217.19;5127474;27;20084;-71
2022/05/30 04:20:48;;;;;;;7.53;3.47;;;;;;;-149.78;100.00;50215.25;5095355;28;20063;-71
2022/05/30 04:23:14;;;;;;;8.95;3.70;;;;;;;-149.78;100.00;50232.84;5120500;27;20126;-71
2022/05/30 04:25:40;;;;;;;7.75;4.07;;;;;;;-149.78;100.00;50197.66;5106492;27;20031;-71
2022/05/30 04:28:06;;;;;;;8.43;4.68;;;;;;;-149.78;100.00;50256.31;5119266;27;20483;-70
2022/05/30 04:30:31;;;;;;;11.32;4.65;;;;;;;-149.78;100.00;50244.59;5092105;28;20123;-71
2022/05/30 04:32:57;;;;;;;9.60;4.63;;;;;;;-149.78;100.00;50203.50;5099921;27;20039;-71
2022/05/30 04:35:23;;;;;;;7.72;4.40;;;;;;;-149.78;100.00;50219.16;5115304;27;20024;-71
2022/05/30 04:37:50;;;;;;;8.13;4.07;;;;;;;-149.78;100.00;50205.47;5091812;28;20038;-71
2022/05/30 04:40:19;;;;;;;8.55;4.20;;;;;;;-149.78;100.00;50213.28;5122863;27;20138;-71
2022/05/30 04:42:46;;;;;;;9.32;4.65;;;;;;;-149.78;100.00;50213.28;5096769;28;20031;-70
2022/05/30 04:45:13;;;;;;;11.15;4.60;;;;;;;-149.78;100.00;50225.03;5126700;27;20031;-71
2022/05/30 04:47:39;;;;;;;9.07;4.82;;;;;;;-149.78;100.00;50225.03;5115796;27;20028;-71
2022/05/30 04:50:07;;;;;;;11.68;5.55;;;;;;;-149.78;100.00;50205.47;5127475;27;20382;-71
2022/05/30 04:52:32;;;;;;;10.38;5.45;;;;;;;-149.78;100.00;50232.84;5110562;27;20043;-71
2022/05/30 04:54:58;;;;;;;9.45;5.65;;;;;;;-149.78;100.00;50248.50;5120357;27;20565;-71
2022/05/30 04:57:25;;;;;;;10.25;6.45;;;;;;;-149.78;100.00;50215.25;5128591;27;20023;-71
2022/05/30 04:59:51;;;;;;;12.35;6.70;;;;;;;-149.78;100.00;50217.19;5100345;28;20499;-71
2022/05/30 05:02:17;;;;;;;11.27;7.50;;;;;;;-149.78;100.00;50203.50;5125936;27;20032;-70
2022/05/30 05:04:43;;;;;;;12.55;8.27;;;;;;;-149.78;100.00;50217.19;5095489;28;20055;-71
2022/05/30 05:07:09;;;;;;;11.60;7.03;;;;;;;-149.78;100.00;50209.38;5092775;28;20080;-70
2022/05/30 05:09:39;;;;;;;12.13;7.80;;;;;;;-149.78;100.00;50209.38;5121125;27;20043;-71
2022/05/30 05:12:05;;;;;;;11.43;6.95;;;;;;;-149.78;100.00;50197.66;5118916;27;20521;-71
2022/05/30 05:14:31;;;;;;;11.40;7.38;;;;;;;-149.78;100.00;50240.66;5090106;28;20414;-71
2022/05/30 05:16:56;;;;;;;15.00;8.15;;;;;;;-149.78;100.00;50217.19;5101705;28;20043;-71
2022/05/30 05:19:23;;;;;;;13.27;7.32;;;;;;;-149.78;100.00;50252.41;5093725;28;20122;-71
2022/05/30 05:21:50;;;;;;;12.70;6.70;;;;;;;-149.78;100.00;50240.66;5130185;28;20042;-71
2022/05/30 05:24:16;;;;;;;10.77;6.70;;;;;;;-149.78;100.00;50275.88;5130489;28;20516;-71
2022/05/30 05:26:47;;;;;;;15.00;7.50;;;;;;;-149.78;100.00;50221.13;5129039;28;20031;-71
2022/05/30 05:29:15;;;;;;;12.37;6.83;;;;;;;-149.78;100.00;50230.88;5132096;28;20030;-71
2022/05/30 05:31:41;;;;;;;12.20;7.10;;;;;;;-149.78;100.00;50225.03;5128780;28;20366;-70
2022/05/30 05:34:09;;;;;;;15.05;6.78;;;;;;;-149.78;100.00;50232.84;5109872;28;20027;-70
2022/05/30 05:36:39;;;;;;;12.40;7.28;;;;;;;-149.78;100.00;50232.84;5119886;28;20356;-70
2022/05/30 05:39:05;;;;;;;12.57;6.43;;;;;;;-149.78;100.00;50201.56;5109071;28;20443;-71
2022/05/30 05:41:31;;;;;;;11.50;6.15;;;;;;;-149.78;100.00;50166.34;5094948;28;20027;-70
2022/05/30 05:43:57;;;;;;;12.23;6.13;;;;;;;-149.78;100.00;50230.88;5092334;28;20092;-71
2022/05/30 05:46:26;;;;;;;13.52;7.10;;;;;;;-149.78;100.00;50236.75;5112767;28;20055;-71
2022/05/30 05:48:53;;;;;;;13.13;6.65;;;;;;;-149.78;100.00;50246.53;5090936;28;20126;-70
2022/05/30 05:51:19;;;;;;;11.20;6.55;;;;;;;-149.78;100.00;50217.19;5129567;28;20569;-70
2022/05/30 05:53:46;;;;;;;12.07;6.85;;;;;;;-149.78;100.00;50230.88;5127845;28;20054;-71
2022/05/30 05:56:17;;;;;;;11.27;6.43;;;;;;;-149.78;100.00;50230.88;5096288;28;20031;-71
2022/05/30 05:58:43;;;;;;;11.27;6.40;;;;;;;-149.78;100.00;50246.53;5105809;28;20075;-71
2022/05/30 06:01:22;;;;;;;13.63;6.60;;;;;;;-149.78;100.00;50221.13;5095299;28;20028;-71
2022/05/30 06:03:51;;;;;;;14.15;7.18;;;;;;;-149.78;100.00;50209.38;5114883;28;20023;-71
2022/05/30 06:06:17;;;;;;;13.43;6.78;;;;;;;-149.78;100.00;50248.50;5120918;28;20541;-71
2022/05/30 06:08:43;;;;;;;13.88;7.00;;;;;;;-149.78;100.00;50252.41;5109086;28;20052;-71
2022/05/30 06:11:09;;;;;;;12.75;7.18;;;;;;;-149.78;100.00;50250.44;5112560;28;20399;-71
2022/05/30 06:13:37;;;;;;;14.07;6.50;;;;;;;-149.78;100.00;50217.19;5099879;28;20106;-71
2022/05/30 06:16:15;;;;;;;14.27;6.93;;;;;;;-149.78;100.00;50201.56;5103590;28;20035;-71
2022/05/30 06:18:41;;;;;;;13.80;7.57;;;;;;;-149.78;100.00;50221.13;5092274;28;20110;-71
2022/05/30 06:21:07;;;;;;;15.48;8.65;;;;;;;-149.78;100.00;50221.13;5124927;28;20033;-71
2022/05/30 06:23:33;;;;;;;17.13;8.63;;;;;;;-149.78;100.00;50221.13;5102995;28;20039;-71
2022/05/30 06:26:03;;;;;;;19.75;9.27;;;;;;;-149.78;100.00;50236.75;5121960;28;20031;-71
2022/05/30 06:28:29;;;;;;;11.80;7.57;;;;;;;-149.78;100.00;50209.38;5129940;28;20035;-71
2022/05/30 06:30:55;;;;;;;13.38;8.55;;;;;;;-149.78;100.00;50170.25;5124847;28;20092;-71
2022/05/30 06:33:20;;;;;;;16.58;9.00;;;;;;;-149.78;100.00;50164.41;5094401;27;20038;-71
2022/05/30 06:35:46;;;;;;;16.42;8.57;;;;;;;-149.78;100.00;50178.09;5081729;28;20046;-72
2022/05/30 06:38:12;;;;;;;13.00;7.18;;;;;;;-149.78;100.00;50140.94;5122402;27;20071;-72
2022/05/30 06:40:38;;;;;;;16.25;7.70;;;;;;;-149.78;100.00;50119.41;5123572;27;20035;-72
2022/05/30 06:43:04;;;;;;;14.85;7.32;;;;;;;-149.78;100.00;50115.50;5130675;27;20039;-71
2022/05/30 06:45:32;;;;;;;8.90;6.00;;;;;;;-149.78;100.00;50115.50;5132874;27;20526;-72
2022/05/30 06:47:58;;;;;;;10.73;6.35;;;;;;;-149.78;100.00;50103.78;5129636;27;20169;-72
2022/05/30 06:50:28;;;;;;;11.18;6.95;;;;;;;-149.78;100.00;50095.94;5121528;27;20027;-72
2022/05/30 06:52:53;;;;;;;12.85;6.43;;;;;;;-149.78;90.06;50049.03;5101005;27;20026;-72
2022/05/30 06:55:20;;;;;;;7.82;5.90;;;;;;;-149.78;77.27;50045.09;5113740;27;20467;-72
2022/05/30 07:00:30;;;;;;;8.52;6.07;;;;;;;-149.78;92.20;50103.78;5133033;27;20121;-71
2022/05/30 07:02:59;;;;;;;9.50;6.18;;;;;;;-149.78;96.98;50135.06;5121873;27;20043;-71
2022/05/30 07:05:25;;;;;;;8.30;5.97;;;;;;;-149.78;100.00;50117.47;5127475;27;20042;-72
2022/05/30 07:07:55;;;;;;;11.23;6.88;;;;;;;-149.78;100.00;50140.94;5106424;27;20043;-71
2022/05/30 07:10:23;;;;;;;10.60;6.93;;;;;;;-149.78;100.00;50095.94;5129094;27;20075;-71
2022/05/30 07:12:48;;;;;;;12.10;6.80;;;;;;;-149.78;100.00;50154.63;5123703;27;20024;-71
2022/05/30 07:15:14;;;;;;;12.10;6.85;;;;;;;-149.78;100.00;50174.19;5104886;27;20039;-71
2022/05/30 07:17:39;;;;;;;9.30;6.10;;;;;;;-149.78;100.00;50123.34;5116963;27;20027;-71
2022/05/30 07:20:07;;;;;;;10.85;5.35;;;;;;;-149.78;100.00;50154.63;5107247;28;20036;-69
2022/05/30 07:22:33;;;;;;;9.07;5.10;;;;;;;-149.78;100.00;50144.84;5125610;27;20070;-69
2022/05/30 07:24:59;;;;;;;10.60;4.85;;;;;;;-149.78;100.00;50144.84;5113990;27;20039;-69
2022/05/30 07:27:26;;;;;;;10.23;5.50;;;;;;;-149.78;100.00;50158.53;5123683;27;20604;-69
2022/05/30 07:29:52;;;;;;;14.23;6.60;;;;;;;-149.78;100.00;50162.44;5112999;28;20395;-69
2022/05/30 07:32:23;;;;;;;13.57;6.63;;;;;;;-149.78;100.00;50197.66;5115166;27;20035;-69
2022/05/30 07:34:49;;;;;;;12.93;6.72;;;;;;;-149.78;100.00;50170.25;5124038;27;20034;-69
2022/05/30 07:37:15;;;;;;;14.90;7.00;;;;;;;-149.78;100.00;50189.81;5095945;27;20506;-69
2022/05/30 07:39:41;;;;;;;12.93;7.25;;;;;;;-149.78;100.00;50217.19;5112724;27;20031;-69
2022/05/30 07:42:10;;;;;;;11.27;6.85;;;;;;;-149.78;100.00;50170.25;5096661;28;20044;-69
2022/05/30 07:44:36;;;;;;;11.55;6.57;;;;;;;-149.78;100.00;50158.53;5107869;27;20520;-69
2022/05/30 07:47:02;;;;;;;11.85;6.70;;;;;;;-149.78;100.00;50162.44;5124506;27;20487;-69
2022/05/30 07:49:28;;;;;;;10.55;6.65;;;;;;;-149.78;100.00;50182.00;5128191;27;20046;-69
2022/05/30 07:51:53;;;;;;;11.93;6.05;;;;;;;-149.78;100.00;50150.72;5103784;28;20475;-69
2022/05/30 07:54:21;;;;;;;9.23;4.75;;;;;;;-149.78;100.00;50140.94;5119748;27;20448;-69
2022/05/30 07:56:47;;;;;;;7.68;4.80;;;;;;;-149.78;100.00;50135.06;5108064;27;20491;-69
2022/05/30 07:59:14;;;;;;;5.00;2.88;;;;;;;-149.78;100.00;50160.50;5107681;28;20035;-69
2022/05/30 08:01:40;;;;;;;8.35;3.05;;;;;;;-149.78;100.00;50185.91;5128176;27;20035;-69
2022/05/30 08:04:12;;;;;;;4.85;2.42;;;;;;;-149.78;100.00;50162.44;5093130;28;20039;-69
2022/05/30 08:06:39;;;;;;;5.65;3.10;;;;;;;-149.78;100.00;50138.97;5101952;28;20106;-69
2022/05/30 08:09:05;;;;;;;5.03;2.35;;;;;;;-149.78;100.00;50158.53;5113913;27;20387;-69
2022/05/30 08:11:31;;;;;;;4.95;2.10;;;;;;;-149.78;100.00;50127.25;5121709;27;20035;-69
2022/05/30 08:13:57;;;;;;;2.88;1.85;;;;;;;-149.78;100.00;50170.25;5086641;28;20046;-69
2022/05/30 08:16:25;;;;;;;5.43;1.70;;;;;;;-149.78;100.00;50178.09;5112082;28;20035;-69
2022/05/30 08:18:51;;;;;;;8.70;2.05;;;;;;;-149.78;100.00;50142.88;5104235;27;20055;-70
2022/05/30 08:21:17;;;;;;;4.35;1.50;;;;;;;-149.78;100.00;50117.47;5094879;27;20073;-70
2022/05/30 08:23:43;;;;;;;2.10;1.40;;;;;;;-149.78;100.00;50150.72;5096729;28;20039;-70
2022/05/30 08:26:09;;;;;;;2.70;1.30;;;;;;;-149.78;100.00;50174.19;5104272;27;20042;-69
2022/05/30 08:28:35;;;;;;;2.15;1.33;;;;;;;-149.78;100.00;50150.72;5115617;27;20035;-69
2022/05/30 08:31:01;;;;;;;2.78;1.20;;;;;;;-149.78;100.00;50185.91;5123281;27;20033;-69
2022/05/30 08:33:27;;;;;;;2.92;1.25;;;;;;;-149.78;100.00;50180.03;5106972;27;20042;-70
2022/05/30 08:36:06;;;;;;;2.75;1.25;;;;;;;-149.78;100.00;50178.09;5111427;27;20042;-71
2022/05/30 08:38:33;;;;;;;4.13;1.48;;;;;;;-149.78;100.00;50154.63;5103765;28;20034;-70
2022/05/30 08:43:52;;;;;;;3.42;1.38;;;;;;;-149.78;100.00;50197.66;5121700;27;20455;-70
2022/05/30 08:46:23;;;;;;;3.03;1.60;;;;;;;-149.78;100.00;50170.25;5099813;27;20066;-71
2022/05/30 08:49:26;;;;;;;2.13;1.40;;;;;;;-149.78;100.00;50174.19;5107052;27;20056;-70
2022/05/30 08:52:06;;;;;;;2.67;1.50;;;;;;;-149.78;100.00;50187.88;5073423;28;20054;-71
2022/05/30 08:55:05;;;;;;;6.50;1.40;;;;;;;-149.78;100.00;50174.19;5092792;28;20093;-70
2022/05/30 08:57:40;;;;;;;3.72;1.60;;;;;;;-149.78;100.00;50193.72;5093443;28;20024;-70
2022/05/30 09:00:44;;;;;;;4.57;1.60;;;;;;;-149.78;100.00;50193.72;5112300;28;20023;-70
2022/05/30 09:03:20;;;;;;;4.03;1.25;;;;;;;-149.78;100.00;50180.03;5089598;27;20048;-70
2022/05/30 09:06:04;;;;;;;4.18;1.38;;;;;;;-149.78;100.00;50225.03;5113255;27;20537;-70
2022/05/30 09:08:43;;;;;;;4.25;1.50;;;;;;;-149.78;100.00;50178.09;5111180;28;20491;-70
2022/05/30 09:11:27;;;;;;;4.38;1.48;;;;;;;-149.78;100.00;50158.53;5126456;27;20036;-70
2022/05/30 09:13:56;;;;;;;4.75;1.77;;;;;;;-149.78;100.00;50221.13;5115603;27;20020;-69
2022/05/30 09:16:28;;;;;;;8.20;1.60;;;;;;;-149.78;100.00;50201.56;5129551;27;20035;-70
2022/05/30 09:18:56;;;;;;;1.75;1.10;;;;;;;-149.78;100.00;50213.28;5130401;28;20034;-70
2022/05/30 09:21:26;;;;;;;6.22;1.70;;;;;;;-149.78;100.00;50183.97;5127883;28;20023;-69
2022/05/30 09:23:53;;;;;;;21.95;1.95;;;;;;;-149.78;100.00;50182.00;5097258;28;20048;-69
2022/05/30 09:26:23;;;;;;;4.10;1.45;;;;;;;-149.78;100.00;50189.81;5103733;28;20039;-67
2022/05/30 09:28:50;;;;;;;2.85;1.27;;;;;;;-149.78;100.00;50180.03;5115357;28;20027;-68
2022/05/30 09:31:51;;;;;;;4.47;1.20;;;;;;;-149.78;100.00;50170.25;5103628;28;20036;-69
2022/05/30 09:34:45;;;;;;;5.10;1.45;;;;;;;-149.78;100.00;50170.25;5067781;28;20036;-69
2022/05/30 09:37:29;;;;;;;3.67;1.55;;;;;;;-149.78;100.00;50236.75;5124712;28;20031;-69
2022/05/30 09:39:54;;;;;;;3.67;1.30;;;;;;;-149.78;100.00;50183.97;5097965;28;20134;-69
2022/05/30 09:42:33;;;;;;;3.25;1.52;;;;;;;-149.78;100.00;50213.28;5102107;28;20517;-68
2022/05/30 09:45:13;;;;;;;2.90;1.27;;;;;;;-149.78;100.00;50174.19;5114430;28;20131;-68
2022/05/30 09:47:57;;;;;;;5.25;1.55;;;;;;;-149.78;100.00;50189.81;5124335;28;20027;-70
2022/05/30 09:50:23;;;;;;;1.75;1.40;;;;;;;-149.78;100.00;50185.91;5093440;28;20036;-70
2022/05/30 09:52:49;;;;;;;4.82;1.20;;;;;;;-149.78;100.00;50182.00;5126085;28;20034;-70
2022/05/30 09:55:30;;;;;;;2.38;1.48;;;;;;;-149.78;100.00;50162.44;5110525;28;20362;-70
2022/05/30 09:57:57;;;;;;;2.03;1.40;;;;;;;-149.78;100.00;50182.00;5094602;28;20027;-70
2022/05/30 10:00:55;;;;;;;1.92;1.20;;;;;;;-149.78;100.00;50168.31;5117424;28;20088;-70
2022/05/30 10:03:29;;;;;;;3.00;1.45;;;;;;;-149.78;100.00;50140.94;5107670;28;20035;-70
2022/05/30 10:06:20;;;;;;;3.08;1.42;;;;;;;-149.78;100.00;50189.81;5110514;28;20028;-70
2022/05/30 10:08:48;;;;;;;8.02;2.55;;;;;;;-149.78;100.00;50166.34;5108889;27;20050;-70
2022/05/30 10:11:32;;;;;;;11.50;3.40;;;;;;;-149.78;100.00;50178.09;5100209;27;20117;-70
2022/05/30 10:13:58;;;;;;;4.13;1.90;;;;;;;-149.78;100.00;50182.00;5122096;27;20035;-70
2022/05/30 10:16:42;;;;;;;4.38;1.58;;;;;;;-149.78;100.00;50189.81;5118177;27;20061;-69
2022/05/30 10:19:21;;;;;;;1.48;1.20;;;;;;;-149.78;100.00;50166.34;5135871;27;20050;-70
2022/05/30 10:28:20;;;;;;;2.15;1.05;;;;;;;-149.78;100.00;50162.44;5127646;27;20444;-69
2022/05/30 10:31:27;;;;;;;2.08;1.17;;;;;;;-149.78;100.00;50158.53;5089096;27;20123;-70
2022/05/30 10:34:31;;;;;;;3.83;1.10;;;;;;;-149.78;100.00;50174.19;5112263;27;20542;-70
2022/05/30 10:37:21;;;;;;;3.95;1.30;;;;;;;-149.78;100.00;50174.19;5126575;27;20438;-69
2022/05/30 10:40:21;;;;;;;3.60;1.35;;;;;;;-149.78;100.00;50166.34;5116139;28;20031;-70
2022/05/30 10:43:10;;;;;;;4.07;1.40;;;;;;;-149.78;100.00;50178.09;5126338;27;20031;-72
2022/05/30 10:45:39;;;;;;;5.30;1.88;;;;;;;-149.78;100.00;50154.63;5129972;27;20046;-71
2022/05/30 10:48:06;;;;;;;4.53;1.50;;;;;;;-149.78;100.00;50162.44;5128897;27;20042;-71
2022/05/30 10:50:43;;;;;;;5.85;1.38;;;;;;;-149.78;100.00;50138.97;5127041;27;20027;-71
2022/05/30 10:53:21;;;;;;;2.10;1.35;;;;;;;-149.78;100.00;50127.25;5114135;27;20019;-71
2022/05/30 10:55:52;;;;;;;4.38;1.55;;;;;;;-149.78;93.20;50142.88;5116441;27;20471;-71
2022/05/30 10:58:24;;;;;;;4.55;1.38;;;;;;;-149.78;92.47;50117.47;5133271;27;20031;-70
2022/05/30 11:00:58;;;;;;;1.48;1.00;;;;;;;-149.78;89.60;50103.78;5107967;28;20360;-71
2022/05/30 11:03:36;;;;;;;2.40;1.13;;;;;;;-149.78;84.97;50138.97;5113502;27;20123;-71
2022/05/30 11:06:02;;;;;;;2.78;1.10;;;;;;;-149.78;84.26;50131.16;5134584;27;20035;-71
2022/05/30 11:09:12;;;;;;;3.05;1.10;;;;;;;-149.78;77.03;50119.41;5116531;27;20055;-71
2022/05/30 11:11:51;;;;;;;2.45;1.63;;;;;;;-149.78;71.44;50117.47;5121204;27;20061;-70
2022/05/30 11:14:50;;;;;;;2.50;1.17;;;;;;;-149.78;65.90;50088.13;5116197;27;20035;-71
2022/05/30 11:17:22;;;;;;;6.20;1.20;;;;;;;-149.78;72.72;50095.94;5126275;27;20027;-70
2022/05/30 11:20:19;;;;;;;2.00;1.37;;;;;;;-149.78;67.18;50064.66;5100880;27;20386;-71
2022/05/30 11:22:45;;;;;;;5.03;1.13;;;;;;;-149.78;66.59;50099.88;5125171;27;20154;-71
2022/05/30 11:25:14;;;;;;;2.58;1.27;;;;;;;-149.78;64.13;50103.78;5110997;27;20118;-71
2022/05/30 11:27:53;;;;;;;1.45;1.10;;;;;;;-149.78;66.66;50072.50;5102360;28;20225;-71
2022/05/30 11:30:33;;;;;;;2.42;1.10;;;;;;;-149.78;65.98;50131.16;5115451;27;20104;-71
2022/05/30 11:33:11;;;;;;;2.30;1.27;;;;;;;-149.78;71.48;50127.25;5106160;27;20644;-71
2022/05/30 11:35:43;;;;;;;4.05;1.25;;;;;;;-149.78;71.71;50105.72;5131162;27;20051;-70
2022/05/30 11:38:27;;;;;;;;;;;;;;;-149.78;80.08;50123.34;5096393;28;20071;-70
2022/05/30 11:41:20;;;;;;;2.83;1.27;;;;;;;-149.78;76.04;50119.41;5129869;27;19919;-70
2022/05/30 11:44:23;;;;;;;3.97;1.25;;;;;;;-149.78;81.14;50135.06;5113102;28;20035;-70
2022/05/30 11:46:55;;;;;;;2.45;1.10;;;;;;;-149.78;71.33;50135.06;5094854;28;20448;-70